createdAt,value
2022-08-17T00:03:23.477Z,4.22
2022-08-17T00:07:16.716Z,4.43
2022-08-17T00:11:13.574Z,3.90
2022-08-17T00:15:10.352Z,4.38
2022-08-17T00:19:08.454Z,4.00
2022-08-17T00:23:10.820Z,3.75
2022-08-17T00:27:03.929Z,4.00
2022-08-17T00:30:56.737Z,3.55
2022-08-17T00:34:49.301Z,3.78
2022-08-17T00:38:42.664Z,3.75
2022-08-17T00:42:35.416Z,3.97
2022-08-17T00:46:32.899Z,4.07
2022-08-17T00:50:25.307Z,4.40
2022-08-17T00:54:24.570Z,3.85
2022-08-17T00:58:17.166Z,4.10
2022-08-17T01:02:28.947Z,4.00
2022-08-17T01:06:28.452Z,4.30
2022-08-17T01:10:58.730Z,4.05
2022-08-17T01:14:40.992Z,4.15
2022-08-17T01:18:36.237Z,4.40
2022-08-17T01:22:28.835Z,4.20
2022-08-17T01:26:22.246Z,3.85
2022-08-17T01:30:56.510Z,3.95
2022-08-17T01:34:33.471Z,4.35
2022-08-17T01:38:38.151Z,4.20
2022-08-17T01:42:39.014Z,4.40
2022-08-17T01:46:35.094Z,4.10
2022-08-17T01:50:32.049Z,4.13
2022-08-17T01:58:18.853Z,4.13
2022-08-17T02:02:11.497Z,4.07
2022-08-17T02:06:27.518Z,4.47
2022-08-17T02:10:20.916Z,4.10
2022-08-17T02:14:14.255Z,3.80
2022-08-17T02:18:06.974Z,4.50
2022-08-17T02:21:59.469Z,4.53
2022-08-17T02:25:52.477Z,4.13
2022-08-17T02:29:45.101Z,4.93
2022-08-17T02:33:43.053Z,4.55
2022-08-17T02:37:36.882Z,4.22
2022-08-17T02:41:29.607Z,4.57
2022-08-17T02:45:24.082Z,4.78
2022-08-17T02:49:16.869Z,5.20
2022-08-17T02:53:09.561Z,5.22
2022-08-17T02:57:03.616Z,5.15
2022-08-17T03:00:56.957Z,5.35
2022-08-17T03:04:49.844Z,5.20
2022-08-17T03:08:42.520Z,4.35
2022-08-17T03:12:38.835Z,4.35
2022-08-17T03:16:31.413Z,4.68
2022-08-17T03:20:25.695Z,4.88
2022-08-17T03:24:18.144Z,4.97
2022-08-17T03:28:12.255Z,4.63
2022-08-17T03:32:13.033Z,4.47
2022-08-17T03:36:07.085Z,4.57
2022-08-17T03:39:59.933Z,4.95
2022-08-17T03:43:52.677Z,4.90
2022-08-17T03:48:03.906Z,4.93
2022-08-17T03:52:16.565Z,5.22
2022-08-17T03:56:28.283Z,5.32
2022-08-17T04:00:20.913Z,5.22
2022-08-17T04:04:14.182Z,5.55
2022-08-17T04:08:06.825Z,5.00
2022-08-17T04:12:02.276Z,5.25
2022-08-17T04:15:59.330Z,5.03
2022-08-17T04:19:52.607Z,4.90
2022-08-17T04:23:45.864Z,4.50
2022-08-17T04:27:38.475Z,4.88
2022-08-17T04:31:31.065Z,4.75
2022-08-17T04:35:27.415Z,5.22
2022-08-17T04:39:20.043Z,5.30
2022-08-17T04:43:18.748Z,4.63
2022-08-17T04:47:11.373Z,5.28
2022-08-17T04:51:10.011Z,5.00
2022-08-17T04:59:04.181Z,4.93
2022-08-17T05:02:57.090Z,4.43
2022-08-17T05:06:50.123Z,4.90
2022-08-17T05:10:45.133Z,4.55
2022-08-17T05:14:39.604Z,4.93
2022-08-17T05:18:32.659Z,4.90
2022-08-17T05:22:25.132Z,4.70
2022-08-17T05:26:25.533Z,4.85
2022-08-17T05:30:20.244Z,4.32
2022-08-17T05:34:12.841Z,4.30
2022-08-17T05:38:08.044Z,4.45
2022-08-17T05:42:02.562Z,4.43
2022-08-17T05:46:16.387Z,4.57
2022-08-17T05:50:10.540Z,4.93
2022-08-17T05:54:23.231Z,5.15
2022-08-17T05:58:31.303Z,4.85
2022-08-17T06:03:09.044Z,5.22
2022-08-17T06:07:25.012Z,4.80
2022-08-17T06:11:29.027Z,4.80
2022-08-17T06:15:46.769Z,4.90
2022-08-17T06:19:59.893Z,4.53
2022-08-17T06:23:58.191Z,4.68
2022-08-17T06:28:09.076Z,4.38
2022-08-17T06:32:09.960Z,4.55
2022-08-17T06:36:23.866Z,4.70
2022-08-17T06:40:53.211Z,4.50
2022-08-17T06:45:03.571Z,4.63
2022-08-17T06:49:15.221Z,4.80
2022-08-17T06:53:29.530Z,4.60
2022-08-17T06:57:29.473Z,5.40
2022-08-17T07:01:28.612Z,4.78
2022-08-17T07:06:03.447Z,5.03
2022-08-17T07:10:00.166Z,4.90
2022-08-17T07:14:20.201Z,4.70
2022-08-17T07:18:12.882Z,4.70
2022-08-17T07:22:06.266Z,4.43
2022-08-17T07:26:09.281Z,4.38
2022-08-17T07:30:10.706Z,4.93
2022-08-17T07:34:08.139Z,5.22
2022-08-17T07:38:24.820Z,4.68
2022-08-17T07:42:20.119Z,4.82
2022-08-17T07:46:53.881Z,4.32
2022-08-17T07:50:49.366Z,4.50
2022-08-17T07:54:43.414Z,4.55
2022-08-17T07:58:36.171Z,4.78
2022-08-17T08:02:41.367Z,4.50
2022-08-17T08:06:48.454Z,4.47
2022-08-17T08:10:45.571Z,4.47
2022-08-17T08:14:39.809Z,4.55
2022-08-17T08:18:54.818Z,5.00
2022-08-17T08:23:09.364Z,4.57
2022-08-17T08:27:27.967Z,4.88
2022-08-17T08:31:54.682Z,4.78
2022-08-17T08:36:58.125Z,5.05
2022-08-17T08:40:48.847Z,5.57
2022-08-17T08:45:07.869Z,5.30
2022-08-17T08:50:01.393Z,5.18
2022-08-17T08:54:28.436Z,5.05
2022-08-17T08:58:41.602Z,5.30
2022-08-17T09:02:44.141Z,5.18
2022-08-17T09:06:40.084Z,5.50
2022-08-17T09:10:49.808Z,5.28
2022-08-17T09:14:57.248Z,4.65
2022-08-17T09:19:00.224Z,4.50
2022-08-17T09:23:32.782Z,5.13
2022-08-17T09:27:35.269Z,4.80
2022-08-17T09:31:48.803Z,4.88
2022-08-17T09:35:48.346Z,4.63
2022-08-17T09:39:48.662Z,4.95
2022-08-17T09:43:51.049Z,4.53
2022-08-17T09:47:50.666Z,5.10
2022-08-17T09:51:57.234Z,4.50
2022-08-17T09:56:06.432Z,4.55
2022-08-17T10:00:16.798Z,4.32
2022-08-17T10:04:29.618Z,4.50
2022-08-17T10:08:27.801Z,4.35
2022-08-17T10:12:39.650Z,4.43
2022-08-17T10:16:52.296Z,4.22
2022-08-17T10:21:21.825Z,4.55
2022-08-17T10:25:53.558Z,4.60
2022-08-17T10:29:53.560Z,4.32
2022-08-17T10:33:59.999Z,4.30
2022-08-17T10:38:26.881Z,4.45
2022-08-17T10:42:32.695Z,4.40
2022-08-17T10:46:45.111Z,3.80
2022-08-17T10:50:56.299Z,4.40
2022-08-17T10:54:51.882Z,3.90
2022-08-17T10:59:00.389Z,3.53
2022-08-17T11:02:57.646Z,3.70
2022-08-17T11:07:02.462Z,4.00
2022-08-17T11:11:37.627Z,3.75
2022-08-17T11:15:59.483Z,3.13
2022-08-17T11:20:19.850Z,3.30
2022-08-17T11:24:15.816Z,3.33
2022-08-17T11:28:18.028Z,3.33
2022-08-17T11:32:28.111Z,3.22
2022-08-17T11:36:40.180Z,3.13
2022-08-17T11:40:43.284Z,3.20
2022-08-17T11:44:59.029Z,3.42
2022-08-17T11:49:33.295Z,3.08
2022-08-17T11:53:37.988Z,3.10
2022-08-17T11:57:30.704Z,2.97
2022-08-17T12:01:23.513Z,3.45
2022-08-17T12:05:22.808Z,3.20
2022-08-17T12:09:24.785Z,3.00
2022-08-17T12:13:19.291Z,3.25
2022-08-17T12:17:22.441Z,3.25
2022-08-17T12:21:53.979Z,3.45
2022-08-17T12:26:01.924Z,3.15
2022-08-17T12:29:55.679Z,3.05
2022-08-17T12:33:50.251Z,2.83
2022-08-17T12:37:47.268Z,3.08
2022-08-17T12:41:44.489Z,3.05
2022-08-17T12:45:39.854Z,3.17
2022-08-17T12:49:38.446Z,2.90
2022-08-17T12:53:35.274Z,2.85
2022-08-17T12:57:39.412Z,2.72
2022-08-17T13:01:35.203Z,3.10
2022-08-17T13:05:37.823Z,2.90
2022-08-17T13:09:35.350Z,3.33
2022-08-17T13:13:39.178Z,3.10
2022-08-17T13:17:36.386Z,3.30
2022-08-17T13:21:30.773Z,2.92
2022-08-17T13:25:23.929Z,2.72
2022-08-17T13:29:27.371Z,3.10
2022-08-17T13:33:44.901Z,3.10
2022-08-17T13:37:37.908Z,2.85
2022-08-17T13:45:40.042Z,2.90
2022-08-17T13:49:48.288Z,3.13
2022-08-17T13:53:41.672Z,2.55
2022-08-17T13:57:35.381Z,2.83
2022-08-17T14:01:34.404Z,2.83
2022-08-17T14:05:27.430Z,2.50
2022-08-17T14:09:24.405Z,2.80
2022-08-17T14:13:17.032Z,2.70
2022-08-17T14:17:10.743Z,2.75
2022-08-17T14:21:03.977Z,2.65
2022-08-17T14:24:57.481Z,2.70
2022-08-17T14:28:56.632Z,2.55
2022-08-17T14:32:52.106Z,2.70
2022-08-17T14:36:45.573Z,2.70
2022-08-17T14:40:41.398Z,2.75
2022-08-17T14:44:34.015Z,2.90
2022-08-17T14:48:26.608Z,2.58
2022-08-17T14:52:23.358Z,2.50
2022-08-17T14:56:16.686Z,2.63
2022-08-17T15:00:10.197Z,2.67
2022-08-17T15:04:02.895Z,2.72
2022-08-17T15:07:55.853Z,2.60
2022-08-17T15:11:48.427Z,2.40
2022-08-17T15:15:40.978Z,2.83
2022-08-17T15:19:33.570Z,2.75
2022-08-17T15:23:27.163Z,2.40
2022-08-17T15:27:31.499Z,2.40
2022-08-17T15:31:31.781Z,2.17
2022-08-17T15:35:29.127Z,2.35
2022-08-17T15:39:22.298Z,2.17
2022-08-17T15:43:27.673Z,2.17
2022-08-17T15:47:20.855Z,2.50
2022-08-17T15:51:24.986Z,2.28
2022-08-17T15:55:23.841Z,2.30
2022-08-17T15:59:16.900Z,2.70
2022-08-17T16:03:45.302Z,2.65
2022-08-17T16:07:26.610Z,2.78
2022-08-17T16:11:21.355Z,2.60
2022-08-17T16:15:14.071Z,2.55
2022-08-17T16:19:06.875Z,2.20
2022-08-17T16:22:59.712Z,2.10
2022-08-17T16:26:52.211Z,2.38
2022-08-17T16:30:45.000Z,2.35
2022-08-17T16:34:37.585Z,2.47
2022-08-17T16:38:30.235Z,2.45
2022-08-17T16:42:29.050Z,2.33
2022-08-17T16:46:21.508Z,2.60
2022-08-17T16:50:18.055Z,2.70
2022-08-17T16:54:14.688Z,2.40
2022-08-17T16:58:10.266Z,2.58
2022-08-17T17:02:10.173Z,2.30
2022-08-17T17:06:18.717Z,2.75
2022-08-17T17:10:16.562Z,2.35
2022-08-17T17:14:17.067Z,2.80
2022-08-17T17:18:12.990Z,2.60
2022-08-17T17:22:15.290Z,2.70
2022-08-17T17:26:50.216Z,2.50
2022-08-17T17:31:08.358Z,2.53
2022-08-17T17:35:07.260Z,2.60
2022-08-17T17:39:24.554Z,2.97
2022-08-17T17:43:38.748Z,2.60
2022-08-17T17:47:32.453Z,2.53
2022-08-17T17:52:09.075Z,2.70
2022-08-17T17:55:48.349Z,2.75
2022-08-17T17:59:48.883Z,3.33
2022-08-17T18:04:20.904Z,3.30
2022-08-17T18:08:49.579Z,3.05
2022-08-17T18:12:51.533Z,3.05
2022-08-17T18:16:48.181Z,3.08
2022-08-17T18:20:43.333Z,3.15
2022-08-17T18:24:54.230Z,2.90
2022-08-17T18:28:51.046Z,2.78
2022-08-17T18:32:46.725Z,3.38
2022-08-17T18:36:40.020Z,2.85
2022-08-17T18:40:37.697Z,3.00
2022-08-17T18:44:37.551Z,3.28
2022-08-17T18:48:38.547Z,2.85
2022-08-17T18:52:33.935Z,2.80
2022-08-17T18:56:31.044Z,2.60
2022-08-17T19:00:41.754Z,2.85
2022-08-17T19:04:39.454Z,2.88
2022-08-17T19:08:31.868Z,2.67
2022-08-17T19:12:38.207Z,3.00
2022-08-17T19:16:58.148Z,2.90
2022-08-17T19:21:04.307Z,3.10
2022-08-17T19:25:11.127Z,3.05
2022-08-17T19:29:16.434Z,2.60
2022-08-17T19:33:12.624Z,2.83
2022-08-17T19:37:22.606Z,2.90
2022-08-17T19:41:33.023Z,3.15
2022-08-17T19:45:40.319Z,3.10
2022-08-17T19:50:00.911Z,3.03
2022-08-17T19:54:15.521Z,3.10
2022-08-17T19:58:46.139Z,3.20
2022-08-17T20:03:00.251Z,3.20
2022-08-17T20:06:53.360Z,2.90
2022-08-17T20:11:02.539Z,3.05
2022-08-17T20:15:00.154Z,3.10
2022-08-17T20:19:01.236Z,2.85
2022-08-17T20:22:59.819Z,2.80
2022-08-17T20:26:59.617Z,3.15
2022-08-17T20:30:52.968Z,3.25
2022-08-17T20:34:46.765Z,2.97
2022-08-17T20:38:52.795Z,2.60
2022-08-17T20:42:45.372Z,2.70
2022-08-17T20:46:38.122Z,2.80
2022-08-17T20:50:36.196Z,2.90
2022-08-17T20:54:47.934Z,2.75
2022-08-17T20:58:46.823Z,2.90
2022-08-17T21:02:41.839Z,2.70
2022-08-17T21:06:34.476Z,3.00
2022-08-17T21:10:26.881Z,3.13
2022-08-17T21:14:52.402Z,2.80
2022-08-17T21:19:00.322Z,2.78
2022-08-17T21:23:07.800Z,2.97
2022-08-17T21:27:19.354Z,2.85
2022-08-17T21:31:38.950Z,2.40
2022-08-17T21:35:47.399Z,3.33
2022-08-17T21:39:41.161Z,3.00
2022-08-17T21:43:36.600Z,3.00
2022-08-17T21:47:30.948Z,3.13
2022-08-17T21:51:28.260Z,2.97
2022-08-17T21:55:29.801Z,3.28
2022-08-17T21:59:26.284Z,3.08
2022-08-17T22:03:26.138Z,3.40
2022-08-17T22:07:35.121Z,2.88
2022-08-17T22:11:28.517Z,2.67
2022-08-17T22:15:20.995Z,3.08
2022-08-17T22:19:14.413Z,2.78
2022-08-17T22:23:32.244Z,3.05
2022-08-17T22:27:45.639Z,8.50
2022-08-17T22:31:56.301Z,14.68
2022-08-17T22:35:50.011Z,12.02
2022-08-17T22:39:45.431Z,9.50
2022-08-17T22:43:38.575Z,3.90
2022-08-17T22:47:39.717Z,3.13
2022-08-17T22:55:44.419Z,3.08
2022-08-17T22:59:45.555Z,3.08
2022-08-17T23:04:04.139Z,2.85
2022-08-17T23:07:56.588Z,2.85
2022-08-17T23:11:53.136Z,3.22
2022-08-17T23:15:46.405Z,2.90
2022-08-17T23:19:39.341Z,2.80
2022-08-17T23:23:31.808Z,3.08
2022-08-17T23:27:28.984Z,3.05
2022-08-17T23:31:25.689Z,3.17
2022-08-17T23:35:18.706Z,3.20
2022-08-17T23:39:11.083Z,3.30
2022-08-17T23:43:09.805Z,3.35
2022-08-17T23:47:18.654Z,3.55
2022-08-17T23:51:19.190Z,3.17
2022-08-17T23:55:13.493Z,3.85
2022-08-17T23:59:06.026Z,4.22
